createdAt,value
2017-08-24T00:00:24.828Z,15.37
2017-08-24T00:02:54.730Z,15.30
2017-08-24T00:05:23.052Z,20.00
2017-08-24T00:07:52.757Z,16.27
2017-08-24T00:10:21.340Z,15.67
2017-08-24T00:12:49.640Z,15.60
2017-08-24T00:15:18.241Z,17.73
2017-08-24T00:17:47.651Z,18.30
2017-08-24T00:20:16.748Z,18.77
2017-08-24T00:22:45.443Z,16.67
2017-08-24T00:25:13.729Z,19.47
2017-08-24T00:27:42.722Z,15.73
2017-08-24T00:30:11.080Z,13.40
2017-08-24T00:32:39.365Z,14.20
2017-08-24T00:35:08.760Z,18.83
2017-08-24T00:37:37.061Z,13.60
2017-08-24T00:40:06.121Z,14.37
2017-08-24T00:42:34.436Z,14.13
2017-08-24T00:45:03.343Z,13.90
2017-08-24T00:47:31.926Z,15.80
2017-08-24T00:50:00.291Z,13.03
2017-08-24T00:52:28.570Z,15.07
2017-08-24T00:54:56.944Z,14.43
2017-08-24T00:57:25.642Z,14.93
2017-08-24T00:59:53.993Z,14.30
2017-08-24T01:02:22.918Z,13.70
2017-08-24T01:04:51.275Z,14.77
2017-08-24T01:07:19.634Z,13.80
2017-08-24T01:09:48.267Z,13.87
2017-08-24T01:12:16.596Z,15.17
2017-08-24T01:14:44.937Z,17.47
2017-08-24T01:17:14.953Z,14.93
2017-08-24T01:19:43.269Z,15.90
2017-08-24T01:22:12.757Z,16.23
2017-08-24T01:24:41.103Z,14.73
2017-08-24T01:27:09.432Z,13.73
2017-08-24T01:29:38.843Z,14.60
2017-08-24T01:32:07.147Z,14.83
2017-08-24T01:34:35.535Z,15.30
2017-08-24T01:37:03.846Z,14.73
2017-08-24T01:39:32.303Z,12.77
2017-08-24T01:42:00.627Z,13.20
2017-08-24T01:44:28.924Z,12.23
2017-08-24T01:46:57.616Z,15.47
2017-08-24T01:49:26.390Z,13.47
2017-08-24T01:51:54.796Z,12.87
2017-08-24T01:54:23.191Z,13.60
2017-08-24T01:56:51.478Z,14.20
2017-08-24T01:59:20.074Z,19.83
2017-08-24T02:01:49.273Z,16.20
2017-08-24T02:04:18.370Z,17.20
2017-08-24T02:06:47.277Z,16.13
2017-08-24T02:09:15.899Z,15.10
2017-08-24T02:11:44.568Z,13.30
2017-08-24T02:14:13.833Z,13.63
2017-08-24T02:16:42.150Z,14.97
2017-08-24T02:19:11.432Z,13.73
2017-08-24T02:21:39.891Z,14.37
2017-08-24T02:24:08.203Z,16.53
2017-08-24T02:26:36.868Z,16.57
2017-08-24T02:29:05.997Z,13.90
2017-08-24T02:31:34.312Z,16.30
2017-08-24T02:34:02.950Z,23.33
2017-08-24T02:36:32.040Z,13.47
2017-08-24T02:39:00.437Z,21.60
2017-08-24T02:41:29.123Z,12.67
2017-08-24T02:43:57.446Z,16.33
2017-08-24T02:46:25.822Z,12.70
2017-08-24T02:48:54.139Z,16.87
2017-08-24T02:51:22.464Z,12.07
2017-08-24T02:53:51.552Z,12.27
2017-08-24T02:56:19.878Z,12.03
2017-08-24T02:58:48.483Z,13.73
2017-08-24T03:01:16.784Z,13.33
2017-08-24T03:03:45.954Z,16.17
2017-08-24T03:06:14.264Z,17.00
2017-08-24T03:08:42.579Z,12.93
2017-08-24T03:11:11.237Z,14.90
2017-08-24T03:13:39.544Z,13.37
2017-08-24T03:16:07.922Z,13.60
2017-08-24T03:18:36.386Z,12.50
2017-08-24T03:21:04.741Z,16.10
2017-08-24T03:23:34.006Z,16.70
2017-08-24T03:26:03.511Z,13.87
2017-08-24T03:28:32.583Z,12.63
2017-08-24T03:31:01.130Z,12.53
2017-08-24T03:33:29.456Z,14.03
2017-08-24T03:35:58.084Z,17.70
2017-08-24T03:38:26.364Z,15.30
2017-08-24T03:40:56.140Z,12.30
2017-08-24T03:43:24.506Z,21.30
2017-08-24T03:45:52.839Z,14.77
2017-08-24T03:48:21.485Z,12.47
2017-08-24T03:50:49.758Z,14.00
2017-08-24T03:53:18.094Z,13.83
2017-08-24T03:55:47.108Z,16.40
2017-08-24T03:58:15.415Z,20.13
2017-08-24T04:00:44.562Z,14.37
2017-08-24T04:03:12.879Z,14.53
2017-08-24T04:05:41.727Z,16.70
2017-08-24T04:08:10.435Z,12.23
2017-08-24T04:10:38.730Z,15.43
2017-08-24T04:13:07.550Z,16.33
2017-08-24T04:15:36.114Z,14.40
2017-08-24T04:18:04.472Z,21.13
2017-08-24T04:20:32.883Z,15.67
2017-08-24T04:23:01.179Z,15.87
2017-08-24T04:25:29.484Z,17.30
2017-08-24T04:27:59.037Z,18.47
2017-08-24T04:30:27.347Z,16.40
2017-08-24T04:32:56.412Z,16.57
2017-08-24T04:35:26.949Z,15.70
2017-08-24T04:37:56.168Z,16.10
2017-08-24T04:40:25.106Z,16.33
2017-08-24T04:42:53.440Z,18.73
2017-08-24T04:45:22.082Z,13.17
2017-08-24T04:47:50.743Z,14.70
2017-08-24T04:50:19.546Z,15.50
2017-08-24T04:52:48.661Z,15.10
2017-08-24T04:55:17.600Z,12.37
2017-08-24T04:57:46.010Z,23.07
2017-08-24T05:00:15.104Z,14.10
2017-08-24T05:02:43.734Z,13.83
2017-08-24T05:05:12.119Z,12.43
2017-08-24T05:07:41.082Z,12.17
2017-08-24T05:10:09.381Z,16.60
2017-08-24T05:12:37.995Z,18.40
2017-08-24T05:15:06.583Z,20.13
2017-08-24T05:17:34.934Z,17.13
2017-08-24T05:20:03.257Z,17.20
2017-08-24T05:22:31.998Z,13.43
2017-08-24T05:25:01.993Z,14.30
2017-08-24T05:27:30.373Z,15.10
2017-08-24T05:29:59.204Z,14.23
2017-08-24T05:32:28.432Z,14.43
2017-08-24T05:34:57.998Z,17.07
2017-08-24T05:37:27.173Z,13.37
2017-08-24T05:39:55.565Z,12.77
2017-08-24T05:42:24.157Z,12.10
2017-08-24T05:44:53.268Z,11.17
2017-08-24T05:47:21.616Z,9.70
2017-08-24T05:49:50.245Z,11.80
2017-08-24T05:52:18.554Z,11.50
2017-08-24T05:54:47.114Z,11.77
2017-08-24T05:57:16.166Z,9.93
2017-08-24T05:59:44.454Z,12.57
2017-08-24T06:02:12.780Z,10.50
2017-08-24T06:04:41.683Z,11.00
2017-08-24T06:07:12.019Z,14.27
2017-08-24T06:09:40.345Z,11.83
2017-08-24T06:12:08.741Z,9.33
2017-08-24T06:14:37.065Z,8.20
2017-08-24T06:17:05.362Z,10.93
2017-08-24T06:19:35.825Z,9.77
2017-08-24T06:22:05.277Z,8.47
2017-08-24T06:24:33.595Z,9.60
2017-08-24T06:27:02.185Z,7.50
2017-08-24T06:29:30.469Z,6.20
2017-08-24T06:31:59.054Z,6.87
2017-08-24T06:34:27.345Z,10.00
2017-08-24T06:36:56.768Z,9.90
2017-08-24T06:39:25.099Z,8.27
2017-08-24T06:41:54.793Z,7.97
2017-08-24T06:44:23.323Z,6.47
2017-08-24T06:46:52.518Z,7.37
2017-08-24T06:49:20.869Z,6.33
2017-08-24T06:51:50.616Z,7.47
2017-08-24T06:54:20.208Z,6.07
2017-08-24T06:56:50.102Z,6.17
2017-08-24T06:59:19.669Z,6.90
2017-08-24T07:01:49.234Z,11.20
2017-08-24T07:04:19.052Z,13.07
2017-08-24T07:06:48.633Z,5.80
2017-08-24T07:09:18.271Z,7.93
2017-08-24T07:11:47.873Z,7.97
2017-08-24T07:14:17.404Z,7.47
2017-08-24T07:16:47.350Z,5.03
2017-08-24T07:19:17.005Z,4.87
2017-08-24T07:21:47.530Z,5.20
2017-08-24T07:24:17.128Z,8.20
2017-08-24T07:26:46.673Z,7.00
2017-08-24T07:29:16.487Z,14.70
2017-08-24T07:31:46.346Z,8.07
2017-08-24T07:34:16.216Z,5.50
2017-08-24T07:36:46.035Z,5.07
2017-08-24T07:39:15.568Z,5.40
2017-08-24T07:41:45.139Z,5.90
2017-08-24T07:44:15.088Z,12.40
2017-08-24T07:46:44.661Z,7.93
2017-08-24T07:49:14.522Z,5.30
2017-08-24T07:51:44.043Z,7.60
2017-08-24T07:54:13.649Z,5.23
2017-08-24T07:56:43.189Z,8.40
2017-08-24T07:59:12.718Z,8.23
2017-08-24T08:01:42.567Z,8.73
2017-08-24T08:04:12.068Z,9.23
2017-08-24T08:06:41.595Z,4.60
2017-08-24T08:09:11.406Z,8.43
2017-08-24T08:11:40.915Z,4.70
2017-08-24T08:14:10.454Z,14.23
2017-08-24T08:16:40.395Z,4.73
2017-08-24T08:19:11.576Z,5.40
2017-08-24T08:21:41.422Z,4.97
2017-08-24T08:24:10.930Z,4.90
2017-08-24T08:26:41.668Z,4.73
2017-08-24T08:29:11.211Z,3.77
2017-08-24T08:31:40.797Z,3.90
2017-08-24T08:34:10.360Z,7.70
2017-08-24T08:36:39.922Z,6.20
2017-08-24T08:39:09.504Z,10.50
2017-08-24T08:41:38.999Z,6.67
2017-08-24T08:44:08.824Z,9.83
2017-08-24T08:46:38.345Z,9.80
2017-08-24T08:49:07.896Z,9.97
2017-08-24T08:51:37.731Z,5.53
2017-08-24T08:54:07.255Z,7.17
2017-08-24T08:56:36.902Z,4.22
2017-08-24T08:59:06.419Z,4.37
2017-08-24T09:01:35.940Z,6.63
2017-08-24T09:04:05.815Z,11.53
2017-08-24T09:06:35.362Z,23.50
2017-08-24T09:09:05.655Z,3.80
2017-08-24T09:11:35.209Z,3.07
2017-08-24T09:14:04.738Z,7.43
2017-08-24T09:16:34.655Z,3.87
2017-08-24T09:19:03.716Z,5.77
2017-08-24T09:21:32.006Z,6.00
2017-08-24T09:24:00.306Z,4.00
2017-08-24T09:26:28.638Z,3.73
2017-08-24T09:28:57.214Z,5.13
2017-08-24T09:31:25.648Z,4.40
2017-08-24T09:33:55.120Z,3.90
2017-08-24T09:36:24.777Z,8.97
2017-08-24T09:38:54.309Z,4.60
2017-08-24T09:41:24.568Z,3.87
2017-08-24T09:43:54.104Z,4.60
2017-08-24T09:46:24.115Z,8.20
2017-08-24T09:48:54.400Z,5.70
2017-08-24T09:51:24.657Z,4.90
2017-08-24T09:53:54.482Z,4.70
2017-08-24T09:56:23.992Z,4.90
2017-08-24T09:58:53.528Z,5.87
2017-08-24T10:01:23.045Z,5.67
2017-08-24T10:03:52.608Z,7.13
2017-08-24T10:06:22.457Z,5.20
2017-08-24T10:08:53.284Z,5.10
2017-08-24T10:11:23.753Z,6.10
2017-08-24T10:13:53.260Z,5.40
2017-08-24T10:16:23.053Z,4.90
2017-08-24T10:18:52.569Z,4.00
2017-08-24T10:21:22.149Z,5.15
2017-08-24T10:23:52.284Z,4.67
2017-08-24T10:26:21.856Z,5.15
2017-08-24T10:28:52.529Z,6.50
2017-08-24T10:31:22.062Z,7.97
2017-08-24T10:33:50.199Z,5.73
2017-08-24T10:36:19.843Z,5.17
2017-08-24T10:38:49.381Z,6.20
2017-08-24T10:41:18.633Z,4.37
2017-08-24T10:43:46.979Z,4.90
2017-08-24T10:46:15.256Z,5.00
2017-08-24T10:48:43.591Z,6.23
2017-08-24T10:51:12.706Z,5.90
2017-08-24T10:53:41.365Z,5.63
2017-08-24T10:56:09.665Z,7.13
2017-08-24T10:58:38.704Z,3.43
2017-08-24T11:01:07.643Z,7.43
2017-08-24T11:03:35.944Z,6.20
2017-08-24T11:06:04.628Z,7.17
2017-08-24T11:08:35.134Z,7.27
2017-08-24T11:11:03.516Z,9.10
2017-08-24T11:13:34.194Z,9.73
2017-08-24T11:16:03.322Z,9.57
2017-08-24T11:18:31.903Z,6.70
2017-08-24T11:21:00.181Z,4.90
2017-08-24T11:23:28.494Z,3.40
2017-08-24T11:25:56.784Z,6.03
2017-08-24T11:28:25.100Z,5.33
2017-08-24T11:30:53.801Z,13.20
2017-08-24T11:33:22.110Z,5.33
2017-08-24T11:35:50.370Z,4.67
2017-08-24T11:38:18.971Z,4.60
2017-08-24T11:40:47.313Z,4.03
2017-08-24T11:43:16.266Z,4.63
2017-08-24T11:45:44.603Z,5.20
2017-08-24T11:48:12.896Z,7.47
2017-08-24T11:50:41.557Z,8.13
2017-08-24T11:53:09.880Z,6.40
2017-08-24T11:55:38.177Z,5.20
2017-08-24T11:58:06.846Z,5.23
2017-08-24T12:00:35.618Z,7.10
2017-08-24T12:03:05.082Z,4.70
2017-08-24T12:05:35.075Z,5.70
2017-08-24T12:08:04.249Z,5.03
2017-08-24T12:10:32.548Z,5.40
2017-08-24T12:13:00.847Z,5.43
2017-08-24T12:15:29.974Z,4.37
2017-08-24T12:17:58.242Z,6.53
2017-08-24T12:20:27.428Z,6.22
2017-08-24T12:22:55.720Z,4.90
2017-08-24T12:25:24.003Z,5.00
2017-08-24T12:27:52.323Z,6.37
2017-08-24T12:30:20.708Z,10.50
2017-08-24T12:32:49.296Z,6.53
2017-08-24T12:35:18.637Z,8.80
2017-08-24T12:37:46.976Z,5.57
2017-08-24T12:40:15.615Z,5.83
2017-08-24T12:42:43.979Z,6.07
2017-08-24T12:45:12.251Z,5.33
2017-08-24T12:47:41.696Z,6.27
2017-08-24T12:50:10.040Z,9.30
2017-08-24T12:52:38.685Z,6.20
2017-08-24T12:55:07.307Z,7.20
2017-08-24T12:57:35.617Z,6.10
2017-08-24T13:00:04.004Z,7.60
2017-08-24T13:02:32.354Z,6.70
2017-08-24T13:05:00.991Z,6.27
2017-08-24T13:07:30.068Z,8.43
2017-08-24T13:10:00.364Z,7.27
2017-08-24T13:12:30.011Z,6.07
2017-08-24T13:14:59.286Z,5.80
2017-08-24T13:17:27.834Z,6.03
2017-08-24T13:19:56.204Z,7.03
2017-08-24T13:22:25.876Z,7.73
2017-08-24T13:24:55.807Z,6.60
2017-08-24T13:27:23.998Z,7.70
2017-08-24T13:29:52.359Z,9.27
2017-08-24T13:32:22.072Z,9.70
2017-08-24T13:34:50.775Z,10.70
2017-08-24T13:37:19.086Z,10.70
2017-08-24T13:39:49.923Z,10.93
2017-08-24T13:42:19.484Z,12.53
2017-08-24T13:44:49.012Z,12.40
2017-08-24T13:47:17.475Z,13.70
2017-08-24T13:49:45.818Z,12.00
2017-08-24T13:52:14.119Z,13.93
2017-08-24T13:54:42.427Z,14.23
2017-08-24T13:57:10.738Z,17.53
2017-08-24T13:59:39.428Z,13.27
2017-08-24T14:02:08.458Z,12.97
2017-08-24T14:04:36.879Z,14.67
2017-08-24T14:07:05.443Z,13.17
2017-08-24T14:09:34.032Z,12.00
2017-08-24T14:12:02.300Z,18.20
2017-08-24T14:14:30.600Z,13.23
2017-08-24T14:16:58.938Z,12.43
2017-08-24T14:19:27.508Z,13.40
2017-08-24T14:21:57.169Z,14.70
2017-08-24T14:24:26.701Z,16.10
2017-08-24T14:26:54.913Z,15.10
2017-08-24T14:29:23.210Z,14.87
2017-08-24T14:31:51.906Z,16.13
2017-08-24T14:34:21.653Z,13.23
2017-08-24T14:36:51.618Z,15.30
2017-08-24T14:39:19.981Z,16.08
2017-08-24T14:41:49.769Z,15.27
2017-08-24T14:44:18.063Z,16.50
2017-08-24T14:46:47.335Z,14.77
2017-08-24T14:49:16.828Z,23.40
2017-08-24T14:51:45.347Z,15.33
2017-08-24T14:54:14.424Z,13.70
2017-08-24T14:56:42.724Z,16.37
2017-08-24T14:59:11.033Z,15.80
2017-08-24T15:01:39.686Z,18.30
2017-08-24T15:04:07.989Z,16.40
2017-08-24T15:06:36.280Z,16.77
2017-08-24T15:09:05.318Z,16.53
2017-08-24T15:11:33.641Z,16.07
2017-08-24T15:14:02.302Z,17.20
2017-08-24T15:16:30.614Z,19.33
2017-08-24T15:18:59.057Z,20.77
2017-08-24T15:21:27.664Z,18.50
2017-08-24T15:23:55.946Z,25.13
2017-08-24T15:26:24.278Z,23.23
2017-08-24T15:28:53.511Z,20.73
2017-08-24T15:31:21.802Z,22.30
2017-08-24T15:33:50.491Z,24.30
2017-08-24T15:36:18.777Z,19.53
2017-08-24T15:38:48.984Z,18.23
2017-08-24T15:41:19.005Z,20.60
2017-08-24T15:43:48.500Z,19.60
2017-08-24T15:46:18.361Z,19.67
2017-08-24T15:48:50.030Z,19.13
2017-08-24T15:51:20.462Z,20.90
2017-08-24T15:53:50.023Z,21.50
2017-08-24T15:56:19.563Z,21.80
2017-08-24T15:58:49.103Z,20.50
2017-08-24T16:01:18.699Z,20.17
2017-08-24T16:03:47.166Z,20.57
2017-08-24T16:06:15.463Z,19.80
2017-08-24T16:08:44.588Z,21.90
2017-08-24T16:11:13.233Z,20.30
2017-08-24T16:13:41.630Z,20.77
2017-08-24T16:16:12.108Z,22.47
2017-08-24T16:18:41.953Z,22.23
2017-08-24T16:21:11.434Z,21.30
2017-08-24T16:23:41.653Z,22.53
2017-08-24T16:26:11.164Z,21.47
2017-08-24T16:28:40.468Z,21.17
2017-08-24T16:31:09.114Z,22.40
2017-08-24T16:33:37.422Z,23.20
2017-08-24T16:36:06.441Z,23.70
2017-08-24T16:38:34.756Z,22.00
2017-08-24T16:41:03.065Z,27.27
2017-08-24T16:43:31.681Z,45.70
2017-08-24T16:45:59.993Z,28.40
2017-08-24T16:48:28.296Z,24.63
2017-08-24T16:50:57.125Z,23.63
2017-08-24T16:53:25.824Z,23.87
2017-08-24T16:55:54.407Z,26.67
2017-08-24T16:58:22.710Z,27.33
2017-08-24T17:00:51.032Z,27.47
2017-08-24T17:03:19.554Z,28.17
2017-08-24T17:05:47.889Z,34.80
2017-08-24T17:08:16.692Z,25.50
2017-08-24T17:10:45.256Z,28.03
2017-08-24T17:13:13.541Z,25.87
2017-08-24T17:15:41.860Z,25.47
2017-08-24T17:18:10.434Z,27.60
2017-08-24T17:20:38.758Z,26.20
2017-08-24T17:23:08.718Z,26.23
2017-08-24T17:25:37.391Z,27.60
2017-08-24T17:28:05.995Z,27.10
2017-08-24T17:30:34.330Z,28.80
2017-08-24T17:33:02.997Z,24.60
2017-08-24T17:35:31.319Z,26.53
2017-08-24T17:38:00.581Z,26.20
2017-08-24T17:40:29.184Z,27.80
2017-08-24T17:42:57.485Z,26.13
2017-08-24T17:45:26.131Z,32.97
2017-08-24T17:47:54.456Z,27.07
2017-08-24T17:50:23.549Z,30.33
2017-08-24T17:52:51.866Z,28.60
2017-08-24T17:55:20.173Z,26.97
2017-08-24T17:57:49.821Z,27.27
2017-08-24T18:00:18.904Z,27.63
2017-08-24T18:02:47.226Z,25.90
2017-08-24T18:05:15.534Z,28.47
2017-08-24T18:07:43.830Z,28.17
2017-08-24T18:10:13.059Z,28.33
2017-08-24T18:12:41.983Z,28.77
2017-08-24T18:15:10.296Z,28.87
2017-08-24T18:17:38.909Z,34.63
2017-08-24T18:20:07.250Z,27.80
2017-08-24T18:22:35.561Z,32.07
2017-08-24T18:25:03.880Z,27.27
2017-08-24T18:34:20.864Z,28.33
2017-08-24T18:36:49.180Z,28.10
2017-08-24T18:39:18.351Z,36.07
2017-08-24T18:41:46.952Z,31.40
2017-08-24T18:44:17.113Z,30.73
2017-08-24T18:46:45.442Z,32.63
2017-08-24T18:49:13.764Z,27.40
2017-08-24T18:51:42.092Z,29.90
2017-08-24T18:54:10.713Z,29.33
2017-08-24T18:56:39.312Z,36.57
2017-08-24T18:59:07.878Z,30.50
2017-08-24T19:01:36.571Z,29.67
2017-08-24T19:04:05.253Z,30.37
2017-08-24T19:06:33.550Z,32.77
2017-08-24T19:09:01.855Z,35.17
2017-08-24T19:11:30.157Z,28.90
2017-08-24T19:13:58.769Z,35.87
2017-08-24T19:16:27.772Z,31.00
2017-08-24T19:18:56.138Z,28.87
2017-08-24T19:21:24.449Z,28.10
2017-08-24T19:23:52.752Z,30.77
2017-08-24T19:26:21.425Z,36.57
2017-08-24T19:28:49.737Z,32.40
2017-08-24T19:31:18.372Z,28.30
2017-08-24T19:33:47.027Z,32.07
2017-08-24T19:36:16.141Z,29.90
2017-08-24T19:38:44.452Z,29.10
2017-08-24T19:41:13.059Z,29.47
2017-08-24T19:43:41.986Z,34.13
2017-08-24T19:46:10.835Z,33.23
2017-08-24T19:48:39.181Z,31.93
2017-08-24T19:51:07.483Z,31.47
2017-08-24T19:53:36.040Z,34.67
2017-08-24T19:56:04.387Z,31.97
2017-08-24T19:58:32.693Z,33.43
2017-08-24T20:01:01.000Z,36.30
2017-08-24T20:03:29.295Z,30.03
2017-08-24T20:05:57.919Z,31.93
2017-08-24T20:08:26.290Z,29.40
2017-08-24T20:10:54.606Z,26.40
2017-08-24T20:13:23.191Z,30.40
2017-08-24T20:15:51.498Z,32.27
2017-08-24T20:25:07.538Z,31.50
2017-08-24T20:27:35.864Z,46.90
2017-08-24T20:30:04.173Z,34.77
2017-08-24T20:32:33.583Z,38.80
2017-08-24T20:35:01.889Z,36.73
2017-08-24T20:37:31.056Z,49.63
2017-08-24T20:39:59.710Z,39.40
2017-08-24T20:42:28.013Z,41.20
2017-08-24T20:44:56.372Z,39.10
2017-08-24T20:47:25.048Z,42.10
2017-08-24T20:49:54.032Z,42.63
2017-08-24T20:52:22.360Z,48.30
2017-08-24T20:54:51.873Z,45.97
2017-08-24T20:57:21.230Z,42.47
2017-08-24T20:59:49.873Z,45.17
2017-08-24T21:02:19.231Z,41.30
2017-08-24T21:04:47.595Z,41.73
2017-08-24T21:07:16.525Z,41.97
2017-08-24T21:09:45.142Z,47.03
2017-08-24T21:12:13.462Z,47.73
2017-08-24T21:14:42.066Z,50.60
2017-08-24T21:17:11.264Z,48.53
2017-08-24T21:19:40.008Z,46.37
2017-08-24T21:22:09.127Z,64.50
2017-08-24T21:24:37.784Z,54.40
2017-08-24T21:27:06.132Z,53.77
2017-08-24T21:29:34.459Z,57.70
2017-08-24T21:32:03.103Z,54.60
2017-08-24T21:34:31.478Z,53.70
2017-08-24T21:36:59.815Z,55.97
2017-08-24T21:39:28.445Z,59.87
2017-08-24T21:41:56.795Z,54.43
2017-08-24T21:44:25.110Z,55.10
2017-08-24T21:46:53.733Z,49.93
2017-08-24T21:49:22.084Z,58.37
2017-08-24T21:51:51.046Z,72.97
2017-08-24T21:54:20.018Z,62.60
2017-08-24T21:56:48.369Z,70.97
2017-08-24T21:59:16.736Z,71.70
2017-08-24T22:01:45.380Z,75.77
2017-08-24T22:04:14.564Z,73.23
2017-08-24T22:06:43.426Z,67.07
2017-08-24T22:09:12.067Z,74.77
2017-08-24T22:11:41.869Z,76.20
2017-08-24T22:14:10.204Z,81.07
2017-08-24T22:16:40.332Z,83.20
2017-08-24T22:19:08.895Z,96.20
2017-08-24T22:21:37.222Z,77.00
2017-08-24T22:24:05.817Z,78.03
2017-08-24T22:26:34.995Z,85.87
2017-08-24T22:29:04.129Z,82.47
2017-08-24T22:31:33.188Z,67.80
2017-08-24T22:34:01.530Z,59.80
2017-08-24T22:36:30.378Z,63.17
2017-08-24T22:38:59.043Z,59.73
2017-08-24T22:41:27.362Z,74.77
2017-08-24T22:43:56.019Z,67.87
2017-08-24T22:46:24.634Z,66.63
2017-08-24T22:48:52.967Z,64.87
2017-08-24T22:51:21.404Z,67.40
2017-08-24T22:53:55.720Z,62.43
2017-08-24T22:56:29.727Z,65.90
2017-08-24T22:59:04.954Z,73.43
2017-08-24T23:01:39.090Z,68.53
2017-08-24T23:04:07.848Z,65.90
2017-08-24T23:06:36.200Z,81.47
2017-08-24T23:09:05.157Z,76.57
2017-08-24T23:11:34.727Z,68.37
2017-08-24T23:14:03.080Z,75.97
2017-08-24T23:16:31.412Z,71.07
2017-08-24T23:19:00.084Z,70.27
2017-08-24T23:21:28.433Z,77.87
2017-08-24T23:23:56.779Z,72.80
2017-08-24T23:26:25.397Z,67.80
2017-08-24T23:28:55.207Z,67.97
2017-08-24T23:31:23.547Z,64.53
2017-08-24T23:33:52.213Z,69.70
2017-08-24T23:36:20.508Z,71.97
2017-08-24T23:38:49.102Z,68.33
2017-08-24T23:41:17.785Z,67.77
2017-08-24T23:43:46.094Z,70.33
2017-08-24T23:46:14.378Z,73.67
2017-08-24T23:48:43.032Z,73.70
2017-08-24T23:51:11.557Z,67.90
2017-08-24T23:53:40.271Z,81.90
2017-08-24T23:56:08.862Z,76.13
2017-08-24T23:58:37.163Z,76.60
